createdAt,value
2022-07-30T00:00:24.690Z,98956.47
2022-07-30T00:02:52.201Z,98993.09
2022-07-30T00:05:19.005Z,98951.84
2022-07-30T00:07:45.759Z,98970.09
2022-07-30T00:10:12.560Z,98944.72
2022-07-30T00:12:39.813Z,98974.28
2022-07-30T00:15:07.444Z,98948.50
2022-07-30T00:17:34.282Z,98972.59
2022-07-30T00:20:01.410Z,98974.88
2022-07-30T00:22:30.980Z,98985.13
2022-07-30T00:24:58.129Z,98955.78
2022-07-30T00:27:25.411Z,98963.56
2022-07-30T00:29:52.258Z,98984.28
2022-07-30T00:32:19.052Z,98972.34
2022-07-30T00:34:45.781Z,98972.97
2022-07-30T00:37:12.534Z,98929.63
2022-07-30T00:39:39.287Z,98978.84
2022-07-30T00:42:06.114Z,98981.38
2022-07-30T00:44:33.064Z,98967.31
2022-07-30T00:47:00.060Z,98974.47
2022-07-30T00:49:27.395Z,98948.50
2022-07-30T00:51:54.381Z,98938.38
2022-07-30T00:54:23.944Z,98986.56
2022-07-30T00:56:50.822Z,98978.00
2022-07-30T00:59:17.610Z,98965.66
2022-07-30T01:01:44.554Z,98942.97
2022-07-30T01:04:14.470Z,98964.19
2022-07-30T01:06:41.460Z,98961.03
2022-07-30T01:09:10.025Z,98965.00
2022-07-30T01:11:42.442Z,98975.91
2022-07-30T01:14:10.248Z,98930.00
2022-07-30T01:16:40.216Z,98967.75
2022-07-30T01:19:33.753Z,98920.38
2022-07-30T01:22:29.013Z,98954.16
2022-07-30T01:25:03.707Z,98954.16
2022-07-30T01:27:34.140Z,98955.84
2022-07-30T01:30:04.692Z,98943.66
2022-07-30T01:32:34.529Z,98939.50
2022-07-30T01:35:03.599Z,98959.19
2022-07-30T01:37:32.029Z,98939.69
2022-07-30T01:39:59.913Z,98944.53
2022-07-30T01:42:29.874Z,98907.41
2022-07-30T01:44:58.680Z,98948.47
2022-07-30T01:47:28.129Z,98933.56
2022-07-30T01:49:55.973Z,98898.19
2022-07-30T01:52:25.119Z,98939.00
2022-07-30T01:54:55.055Z,98897.78
2022-07-30T01:57:23.338Z,98921.22
2022-07-30T01:59:53.076Z,98931.25
2022-07-30T02:02:19.771Z,98933.97
2022-07-30T02:04:47.173Z,98897.75
2022-07-30T02:07:20.091Z,98913.69
2022-07-30T02:10:01.800Z,98921.84
2022-07-30T02:12:31.140Z,98913.91
2022-07-30T02:15:03.309Z,98928.34
2022-07-30T02:17:39.871Z,98918.72
2022-07-30T02:20:13.679Z,98907.63
2022-07-30T02:22:45.170Z,98919.13
2022-07-30T02:25:18.112Z,98924.56
2022-07-30T02:27:49.449Z,98917.88
2022-07-30T02:30:16.931Z,98887.09
2022-07-30T02:32:45.271Z,98910.97
2022-07-30T02:35:18.731Z,98867.22
2022-07-30T02:37:48.556Z,98910.56
2022-07-30T02:40:16.529Z,98916.41
2022-07-30T02:42:46.801Z,98910.34
2022-07-30T02:45:17.946Z,98909.50
2022-07-30T02:47:53.691Z,98912.22
2022-07-30T02:50:22.118Z,98895.25
2022-07-30T02:52:51.280Z,98898.59
2022-07-30T02:55:18.771Z,98908.88
2022-07-30T02:57:47.191Z,98912.66
2022-07-30T03:00:14.804Z,98906.19
2022-07-30T03:02:43.875Z,98863.84
2022-07-30T03:05:13.798Z,98917.06
2022-07-30T03:07:41.630Z,98912.66
2022-07-30T03:10:09.590Z,98887.91
2022-07-30T03:12:39.540Z,98908.88
2022-07-30T03:15:07.099Z,98908.88
2022-07-30T03:17:40.459Z,98912.44
2022-07-30T03:20:14.561Z,98930.81
2022-07-30T03:22:48.307Z,98913.44
2022-07-30T03:25:18.294Z,98925.97
2022-07-30T03:27:46.830Z,98916.78
2022-07-30T03:30:14.480Z,98872.22
2022-07-30T03:32:43.018Z,98929.56
2022-07-30T03:35:16.986Z,98876.78
2022-07-30T03:37:45.139Z,98919.06
2022-07-30T03:40:13.880Z,98882.41
2022-07-30T03:42:41.141Z,98932.03
2022-07-30T03:45:09.140Z,98901.66
2022-07-30T03:47:38.969Z,98946.47
2022-07-30T03:50:05.865Z,98943.31
2022-07-30T03:52:39.020Z,98935.78
2022-07-30T03:55:10.120Z,98948.75
2022-07-30T03:57:37.260Z,98931.34
2022-07-30T04:00:14.535Z,98932.22
2022-07-30T04:02:45.783Z,98930.38
2022-07-30T04:05:14.062Z,98943.13
2022-07-30T04:07:44.962Z,98952.13
2022-07-30T04:10:12.760Z,98934.31
2022-07-30T04:12:39.543Z,98935.78
2022-07-30T04:16:37.329Z,98956.91
2022-07-30T04:17:58.495Z,98945.38
2022-07-30T04:20:30.453Z,98965.25
2022-07-30T04:22:58.361Z,98963.16
2022-07-30T04:25:25.901Z,98920.03
2022-07-30T04:28:02.892Z,98929.22
2022-07-30T04:30:31.584Z,98972.34
2022-07-30T04:32:58.380Z,98964.84
2022-07-30T04:35:49.982Z,98970.91
2022-07-30T04:38:19.812Z,98969.47
2022-07-30T04:40:47.201Z,98972.38
2022-07-30T04:43:14.611Z,98966.34
2022-07-30T04:45:42.262Z,98935.06
2022-07-30T04:48:09.341Z,98974.47
2022-07-30T04:50:41.068Z,98954.13
2022-07-30T04:53:08.561Z,98980.56
2022-07-30T04:55:39.055Z,98933.00
2022-07-30T04:58:07.353Z,98962.72
2022-07-30T05:00:40.749Z,98935.13
2022-07-30T05:03:11.846Z,98967.97
2022-07-30T05:05:40.528Z,98930.72
2022-07-30T05:08:08.211Z,98938.63
2022-07-30T05:10:35.312Z,98973.06
2022-07-30T05:13:02.244Z,98976.16
2022-07-30T05:15:36.191Z,98970.94
2022-07-30T05:18:04.293Z,98976.22
2022-07-30T05:20:31.041Z,98975.34
2022-07-30T05:22:58.080Z,98942.25
2022-07-30T05:25:24.969Z,98979.16
2022-07-30T05:27:52.717Z,98972.22
2022-07-30T05:30:19.781Z,98971.19
2022-07-30T05:32:52.980Z,98967.63
2022-07-30T05:35:20.207Z,98933.66
2022-07-30T05:37:46.978Z,98973.69
2022-07-30T05:40:13.910Z,98946.28
2022-07-30T05:42:41.311Z,98989.41
2022-07-30T05:45:08.725Z,98966.78
2022-07-30T05:47:38.887Z,98959.47
2022-07-30T05:50:06.338Z,98989.41
2022-07-30T05:52:34.116Z,98985.44
2022-07-30T05:55:01.540Z,98945.22
2022-07-30T05:57:34.247Z,98942.69
2022-07-30T06:00:01.855Z,98912.97
2022-07-30T06:02:29.497Z,98977.28
2022-07-30T06:04:56.904Z,98927.81
2022-07-30T06:07:24.029Z,98916.94
2022-07-30T06:09:53.594Z,98987.09
2022-07-30T06:12:25.035Z,99013.13
2022-07-30T06:15:04.859Z,98936.13
2022-07-30T06:17:32.237Z,99022.25
2022-07-30T06:20:12.083Z,98976.97
2022-07-30T06:22:42.095Z,98931.97
2022-07-30T06:25:12.765Z,98948.31
2022-07-30T06:27:45.532Z,98980.63
2022-07-30T06:30:17.866Z,99010.66
2022-07-30T06:32:48.730Z,98966.59
2022-07-30T06:35:16.229Z,98940.41
2022-07-30T06:38:05.946Z,98980.28
2022-07-30T06:40:33.685Z,98928.28
2022-07-30T06:43:01.113Z,99005.84
2022-07-30T06:45:28.221Z,98981.09
2022-07-30T06:48:03.737Z,99018.81
2022-07-30T06:50:30.799Z,99003.09
2022-07-30T06:52:58.080Z,98989.69
2022-07-30T06:55:28.772Z,98962.84
2022-07-30T06:57:59.011Z,99011.72
2022-07-30T07:00:26.177Z,98981.69
2022-07-30T07:02:53.527Z,98967.88
2022-07-30T07:05:37.702Z,99009.81
2022-07-30T07:08:07.678Z,98967.84
2022-07-30T07:10:38.218Z,98965.09
2022-07-30T07:13:07.980Z,99020.66
2022-07-30T07:15:37.400Z,99018.34
2022-07-30T07:18:09.527Z,98933.66
2022-07-30T07:20:46.093Z,98971.97
2022-07-30T07:23:13.144Z,98938.28
2022-07-30T07:25:43.931Z,98974.94
2022-07-30T07:28:23.173Z,98971.59
2022-07-30T07:31:03.818Z,98978.94
2022-07-30T07:33:33.674Z,98943.09
2022-07-30T07:36:02.701Z,99010.41
2022-07-30T07:38:30.882Z,98929.09
2022-07-30T07:41:12.990Z,98971.00
2022-07-30T07:43:40.987Z,99008.34
2022-07-30T07:46:16.807Z,99011.06
2022-07-30T07:49:11.543Z,98970.19
2022-07-30T07:51:47.289Z,98974.13
2022-07-30T07:54:21.604Z,99013.78
2022-07-30T07:56:53.214Z,99009.41
2022-07-30T07:59:23.636Z,99002.28
2022-07-30T08:01:57.900Z,98984.41
2022-07-30T08:04:39.900Z,99008.78
2022-07-30T08:07:11.091Z,99004.38
2022-07-30T08:09:44.784Z,99009.41
2022-07-30T08:12:33.203Z,99008.78
2022-07-30T08:15:05.771Z,99007.94
2022-07-30T08:17:49.886Z,99002.50
2022-07-30T08:20:17.299Z,98978.41
2022-07-30T08:22:44.339Z,98972.97
2022-07-30T08:25:11.686Z,99006.09
2022-07-30T08:27:50.841Z,99010.69
2022-07-30T08:30:19.623Z,98958.13
2022-07-30T08:32:46.505Z,99001.06
2022-07-30T08:35:14.535Z,98984.75
2022-07-30T08:37:42.512Z,98984.13
2022-07-30T08:40:11.315Z,98984.94
2022-07-30T08:42:38.625Z,99017.38
2022-07-30T08:45:07.035Z,98968.59
2022-07-30T08:47:35.025Z,99009.16
2022-07-30T08:50:05.407Z,99000.84
2022-07-30T08:52:33.391Z,99003.25
2022-07-30T08:55:01.250Z,99001.19
2022-07-30T08:57:39.367Z,98991.13
2022-07-30T09:00:12.290Z,98939.25
2022-07-30T09:02:39.288Z,98954.66
2022-07-30T09:05:07.296Z,98951.72
2022-07-30T09:07:36.877Z,98988.19
2022-07-30T09:10:04.931Z,98999.47
2022-07-30T09:12:31.850Z,99001.19
2022-07-30T09:15:06.524Z,98992.19
2022-07-30T09:17:57.881Z,98954.59
2022-07-30T09:20:29.047Z,98991.47
2022-07-30T09:22:58.988Z,98982.13
2022-07-30T09:26:25.460Z,98988.22
2022-07-30T09:28:52.871Z,98986.69
2022-07-30T09:31:21.196Z,98973.81
2022-07-30T09:33:48.266Z,98974.47
2022-07-30T09:36:19.913Z,98915.28
2022-07-30T09:38:52.853Z,98918.56
2022-07-30T09:41:41.689Z,98980.19
2022-07-30T09:44:08.716Z,98974.56
2022-07-30T09:46:52.046Z,98982.94
2022-07-30T09:49:24.179Z,98982.88
2022-07-30T09:51:56.168Z,98923.34
2022-07-30T09:54:53.098Z,98982.03
2022-07-30T09:57:26.387Z,98908.66
2022-07-30T09:59:56.258Z,98958.47
2022-07-30T10:02:33.657Z,98907.09
2022-07-30T10:05:15.631Z,98986.13
2022-07-30T10:07:51.309Z,98969.94
2022-07-30T10:10:21.097Z,98956.47
2022-07-30T10:12:52.247Z,98975.53
2022-07-30T10:15:21.440Z,98966.13
2022-07-30T10:17:49.828Z,98921.22
2022-07-30T10:20:18.064Z,98955.78
2022-07-30T10:22:47.621Z,98962.56
2022-07-30T10:25:27.858Z,98930.97
2022-07-30T10:28:00.423Z,98919.41
2022-07-30T10:30:33.791Z,98922.25
2022-07-30T10:33:06.473Z,98969.59
2022-07-30T10:35:38.402Z,98967.22
2022-07-30T10:38:13.461Z,98906.31
2022-07-30T10:41:11.416Z,98973.19
2022-07-30T10:44:12.487Z,98972.78
2022-07-30T10:47:07.759Z,98929.28
2022-07-30T10:50:36.674Z,98976.75
2022-07-30T10:53:16.501Z,98889.16
2022-07-30T10:56:25.574Z,98930.75
2022-07-30T10:59:18.419Z,98979.38
2022-07-30T11:01:53.352Z,98981.16
2022-07-30T11:04:34.512Z,98935.25
2022-07-30T11:07:33.358Z,98972.47
2022-07-30T11:11:16.154Z,98976.50
2022-07-30T11:14:02.740Z,98942.41
2022-07-30T11:16:44.079Z,98973.16
2022-07-30T11:19:56.148Z,98940.34
2022-07-30T11:22:27.446Z,98961.69
2022-07-30T11:25:04.495Z,98889.16
2022-07-30T11:27:45.843Z,98868.31
2022-07-30T11:30:17.016Z,98936.47
2022-07-30T11:32:48.501Z,98926.09
2022-07-30T11:35:23.331Z,98944.59
2022-07-30T11:38:01.872Z,98954.81
2022-07-30T11:40:51.219Z,98906.56
2022-07-30T11:43:41.736Z,98919.19
2022-07-30T11:46:16.456Z,98913.72
2022-07-30T11:49:19.185Z,98891.97
2022-07-30T11:51:47.783Z,98916.38
2022-07-30T11:54:15.461Z,98876.53
2022-07-30T11:57:04.554Z,98881.09
2022-07-30T11:59:59.416Z,98907.09
2022-07-30T12:02:32.428Z,98903.81
2022-07-30T12:04:59.469Z,98929.72
2022-07-30T12:07:28.486Z,98871.00
2022-07-30T12:10:12.967Z,98878.31
2022-07-30T12:13:09.349Z,98886.41
2022-07-30T12:15:39.251Z,98917.47
2022-07-30T12:18:26.681Z,98913.38
2022-07-30T12:21:01.743Z,98847.72
2022-07-30T12:23:56.701Z,98863.91
2022-07-30T12:26:26.921Z,98846.59
2022-07-30T12:29:15.723Z,98851.00
2022-07-30T12:31:58.327Z,98880.47
2022-07-30T12:34:28.908Z,98830.66
2022-07-30T12:37:16.938Z,98830.81
2022-07-30T12:42:38.885Z,98888.06
2022-07-30T12:45:26.431Z,98851.41
2022-07-30T12:47:55.407Z,98856.47
2022-07-30T12:50:28.990Z,98814.59
2022-07-30T12:52:58.939Z,98835.22
2022-07-30T12:55:44.625Z,98835.44
2022-07-30T12:58:16.058Z,98821.66
2022-07-30T13:01:00.195Z,98782.84
2022-07-30T13:03:52.929Z,98822.75
2022-07-30T13:06:35.175Z,98774.94
2022-07-30T13:09:05.600Z,98833.34
2022-07-30T13:11:49.413Z,98819.97
2022-07-30T13:14:17.419Z,98770.41
2022-07-30T13:16:44.448Z,98779.38
2022-07-30T13:19:12.252Z,98814.81
2022-07-30T13:21:50.114Z,98816.28
2022-07-30T13:24:18.448Z,98785.47
2022-07-30T13:26:45.890Z,98839.06
2022-07-30T13:29:15.933Z,98827.25
2022-07-30T13:31:48.897Z,98784.81
2022-07-30T13:35:06.200Z,98887.44
2022-07-30T13:37:41.118Z,98892.72
2022-07-30T13:40:17.096Z,98839.94
2022-07-30T13:42:46.562Z,98857.97
2022-07-30T13:48:04.586Z,98867.91
2022-07-30T13:50:35.065Z,98840.91
2022-07-30T13:53:35.446Z,98832.81
2022-07-30T13:56:03.901Z,98798.44
2022-07-30T13:58:38.765Z,98871.72
2022-07-30T14:01:08.535Z,98900.56
2022-07-30T14:03:48.778Z,98845.97
2022-07-30T14:06:25.596Z,98795.94
2022-07-30T14:09:12.972Z,98799.66
2022-07-30T14:11:54.407Z,98817.00
2022-07-30T14:14:25.069Z,98819.72
2022-07-30T14:16:53.615Z,98788.75
2022-07-30T14:19:28.232Z,98815.81
2022-07-30T14:21:55.374Z,98824.75
2022-07-30T14:24:22.804Z,98842.69
2022-07-30T14:26:55.837Z,98823.34
2022-07-30T14:29:25.165Z,98837.41
2022-07-30T14:31:52.030Z,98837.47
2022-07-30T14:34:19.421Z,98817.84
2022-07-30T14:36:46.287Z,98842.66
2022-07-30T14:39:13.055Z,98788.50
2022-07-30T14:41:43.085Z,98840.63
2022-07-30T14:44:13.904Z,98825.81
2022-07-30T14:46:51.974Z,98826.94
2022-07-30T14:49:22.737Z,98832.75
2022-07-30T14:52:01.041Z,98841.03
2022-07-30T14:54:31.805Z,98842.41
2022-07-30T14:57:00.147Z,98809.28
2022-07-30T14:59:29.736Z,98811.75
2022-07-30T15:01:57.042Z,98883.19
2022-07-30T15:04:24.266Z,98886.50
2022-07-30T15:06:51.083Z,98878.47
2022-07-30T15:09:18.005Z,98895.59
2022-07-30T15:12:07.853Z,98889.25
2022-07-30T15:14:31.748Z,98887.50
2022-07-30T15:17:03.435Z,98894.03
2022-07-30T15:19:31.391Z,98892.66
2022-07-30T15:21:59.257Z,98892.22
2022-07-30T15:24:26.286Z,98877.66
2022-07-30T15:26:55.123Z,98884.88
2022-07-30T15:29:24.169Z,98895.28
2022-07-30T15:31:52.157Z,98860.06
2022-07-30T15:34:22.868Z,98877.34
2022-07-30T15:36:49.562Z,98865.34
2022-07-30T15:39:16.426Z,98873.59
2022-07-30T15:41:43.302Z,98872.97
2022-07-30T15:44:10.133Z,98852.56
2022-07-30T15:46:37.041Z,98873.50
2022-07-30T15:49:03.954Z,98885.47
2022-07-30T15:51:32.276Z,98884.38
2022-07-30T15:53:59.837Z,98883.91
2022-07-30T15:56:28.355Z,98885.97
2022-07-30T15:58:55.641Z,98877.72
2022-07-30T16:01:23.068Z,98866.56
2022-07-30T16:03:49.976Z,98879.41
2022-07-30T16:06:16.866Z,98885.81
2022-07-30T16:08:43.623Z,98885.06
2022-07-30T16:11:11.033Z,98891.81
2022-07-30T16:13:38.399Z,98899.50
2022-07-30T16:16:05.553Z,98893.06
2022-07-30T16:18:32.466Z,98894.56
2022-07-30T16:21:01.364Z,98911.31
2022-07-30T16:23:36.584Z,98904.06
2022-07-30T16:26:04.221Z,98919.22
2022-07-30T16:28:31.269Z,98906.22
2022-07-30T16:30:58.720Z,98903.59
2022-07-30T16:33:25.734Z,98922.13
2022-07-30T16:35:52.798Z,98927.03
2022-07-30T16:38:20.325Z,98915.84
2022-07-30T16:40:47.189Z,98931.91
2022-07-30T16:43:15.568Z,98926.56
2022-07-30T16:45:43.939Z,98939.91
2022-07-30T16:48:11.593Z,98934.94
2022-07-30T16:50:40.792Z,98941.19
2022-07-30T16:53:13.296Z,98938.88
2022-07-30T16:55:41.250Z,98953.69
2022-07-30T16:58:08.031Z,98965.13
2022-07-30T17:00:34.967Z,98948.38
2022-07-30T17:03:02.005Z,98942.78
2022-07-30T17:05:29.551Z,98945.59
2022-07-30T17:07:56.516Z,98951.59
2022-07-30T17:10:25.592Z,98963.56
2022-07-30T17:12:53.664Z,98958.53
2022-07-30T17:15:20.550Z,98955.22
2022-07-30T17:17:59.331Z,98962.97
2022-07-30T17:20:26.134Z,98965.28
2022-07-30T17:22:55.428Z,98961.25
2022-07-30T17:25:29.044Z,98956.41
2022-07-30T17:27:57.049Z,98966.53
2022-07-30T17:30:24.591Z,98977.09
2022-07-30T17:32:51.583Z,98990.22
2022-07-30T17:35:18.704Z,98977.78
2022-07-30T17:37:45.581Z,98990.25
2022-07-30T17:40:27.183Z,98981.50
2022-07-30T17:43:03.572Z,98988.59
2022-07-30T17:45:31.810Z,98978.94
2022-07-30T17:47:58.810Z,98982.88
2022-07-30T17:50:25.626Z,98998.44
2022-07-30T17:52:52.658Z,99004.78
2022-07-30T17:55:19.569Z,98989.94
2022-07-30T17:57:46.292Z,98978.69
2022-07-30T18:00:13.638Z,98978.81
2022-07-30T18:02:40.418Z,98988.28
2022-07-30T18:05:08.745Z,98979.41
2022-07-30T18:07:35.523Z,98984.84
2022-07-30T18:10:02.499Z,98976.06
2022-07-30T18:12:29.589Z,98994.31
2022-07-30T18:14:56.300Z,98999.69
2022-07-30T18:17:23.310Z,98993.44
2022-07-30T18:19:50.135Z,98999.91
2022-07-30T18:22:28.216Z,99006.63
2022-07-30T18:24:57.533Z,99003.88
2022-07-30T18:27:24.292Z,99007.44
2022-07-30T18:29:51.131Z,98996.19
2022-07-30T18:32:17.882Z,98993.56
2022-07-30T18:34:44.751Z,98998.50
2022-07-30T18:37:11.529Z,99031.19
2022-07-30T18:39:38.420Z,99048.19
2022-07-30T18:42:05.791Z,99035.59
2022-07-30T18:44:33.182Z,99027.78
2022-07-30T18:47:00.013Z,99020.09
2022-07-30T18:49:37.738Z,99015.06
2022-07-30T18:52:07.043Z,98993.91
2022-07-30T18:54:35.075Z,99009.25
2022-07-30T18:57:02.103Z,99022.84
2022-07-30T18:59:29.394Z,99016.75
2022-07-30T19:01:56.372Z,99023.47
2022-07-30T19:04:23.480Z,99025.59
2022-07-30T19:06:50.532Z,99024.94
2022-07-30T19:09:18.299Z,99032.69
2022-07-30T19:11:46.428Z,99035.63
2022-07-30T19:14:14.439Z,99032.25
2022-07-30T19:16:42.692Z,99053.63
2022-07-30T19:19:09.820Z,99054.25
2022-07-30T19:21:36.587Z,99052.56
2022-07-30T19:24:04.026Z,99050.22
2022-07-30T19:26:31.054Z,99065.13
2022-07-30T19:28:58.274Z,99060.25
2022-07-30T19:31:26.984Z,99052.31
2022-07-30T19:33:53.880Z,99055.88
2022-07-30T19:36:23.794Z,99037.88
2022-07-30T19:38:56.497Z,99065.06
2022-07-30T19:41:23.375Z,99055.19
2022-07-30T19:43:58.126Z,99050.28
2022-07-30T19:46:37.343Z,99047.56
2022-07-30T19:49:06.746Z,99048.41
2022-07-30T19:52:11.008Z,99055.59
2022-07-30T19:54:20.813Z,99041.94
2022-07-30T19:56:48.863Z,99056.28
2022-07-30T19:59:16.423Z,99054.72
2022-07-30T20:01:51.757Z,99057.19
2022-07-30T20:04:20.130Z,99064.06
2022-07-30T20:06:49.868Z,99046.22
2022-07-30T20:09:17.295Z,99058.50
2022-07-30T20:11:44.778Z,99069.19
2022-07-30T20:14:12.214Z,99044.81
2022-07-30T20:16:43.344Z,99065.78
2022-07-30T20:19:15.559Z,99070.81
2022-07-30T20:21:56.696Z,99069.53
2022-07-30T20:24:30.140Z,99069.94
2022-07-30T20:26:58.010Z,99069.25
2022-07-30T20:29:24.896Z,99065.84
2022-07-30T20:31:51.807Z,99073.59
2022-07-30T20:34:20.823Z,99069.00
2022-07-30T20:36:51.312Z,99069.25
2022-07-30T20:39:19.910Z,99073.31
2022-07-30T20:41:47.020Z,99060.94
2022-07-30T20:44:23.685Z,99076.56
2022-07-30T20:46:52.496Z,99051.03
2022-07-30T20:49:23.781Z,99070.75
2022-07-30T20:52:01.780Z,99076.63
2022-07-30T20:54:30.086Z,99073.91
2022-07-30T20:56:57.704Z,99073.25
2022-07-30T20:59:25.190Z,99081.16
2022-07-30T21:01:51.937Z,99068.84
2022-07-30T21:04:23.844Z,99064.91
2022-07-30T21:06:55.467Z,99087.69
2022-07-30T21:09:22.132Z,99095.84
2022-07-30T21:11:50.522Z,99076.38
2022-07-30T21:14:18.577Z,99105.09
2022-07-30T21:16:46.954Z,99052.31
2022-07-30T21:19:16.702Z,99105.63
2022-07-30T21:21:48.231Z,99111.31
2022-07-30T21:24:19.534Z,99116.72
2022-07-30T21:26:51.176Z,99073.19
2022-07-30T21:29:19.131Z,99051.53
2022-07-30T21:32:01.942Z,99071.03
2022-07-30T21:34:40.290Z,99107.91
2022-07-30T21:37:09.010Z,99105.44
2022-07-30T21:39:39.980Z,99099.34
2022-07-30T21:42:09.074Z,99066.97
2022-07-30T21:44:37.541Z,99034.75
2022-07-30T21:47:10.028Z,99036.53
2022-07-30T21:49:37.579Z,99114.97
2022-07-30T21:52:05.001Z,99116.28
2022-07-30T21:54:48.423Z,99114.84
2022-07-30T21:57:26.097Z,99063.94
2022-07-30T21:59:55.069Z,99091.13
2022-07-30T22:02:23.335Z,99070.72
2022-07-30T22:04:51.428Z,99091.63
2022-07-30T22:07:18.431Z,99117.69
2022-07-30T22:09:45.209Z,99117.63
2022-07-30T22:12:12.818Z,99091.78
2022-07-30T22:14:40.318Z,99110.75
2022-07-30T22:17:14.739Z,99085.81
2022-07-30T22:19:50.126Z,99139.84
2022-07-30T22:22:27.367Z,99145.03
2022-07-30T22:24:58.126Z,99136.84
2022-07-30T22:27:40.093Z,99094.88
2022-07-30T22:30:19.058Z,99073.78
2022-07-30T22:32:48.881Z,99099.19
2022-07-30T22:35:20.704Z,99144.25
2022-07-30T22:38:00.279Z,99148.34
2022-07-30T22:40:27.138Z,99064.28
2022-07-30T22:42:54.083Z,99113.50
2022-07-30T22:45:48.308Z,99137.22
2022-07-30T22:48:10.166Z,99100.53
2022-07-30T22:50:39.905Z,99156.09
2022-07-30T22:53:23.464Z,99087.88
2022-07-30T22:55:54.800Z,99109.00
2022-07-30T22:58:26.428Z,99108.28
2022-07-30T23:03:33.250Z,99138.16
2022-07-30T23:06:00.753Z,99125.16
2022-07-30T23:08:31.021Z,99117.59
2022-07-30T23:11:08.919Z,99166.75
2022-07-30T23:13:39.854Z,99154.78
2022-07-30T23:16:08.045Z,99121.50
2022-07-30T23:18:37.292Z,99117.84
2022-07-30T23:21:04.938Z,99157.41
2022-07-30T23:23:34.078Z,99122.44
2022-07-30T23:26:02.244Z,99101.78
2022-07-30T23:28:29.029Z,99159.56
2022-07-30T23:30:55.984Z,99148.63
2022-07-30T23:33:22.939Z,99142.84
2022-07-30T23:35:49.762Z,99158.44
2022-07-30T23:38:16.858Z,99157.31
2022-07-30T23:40:43.559Z,99171.69
2022-07-30T23:43:10.431Z,99150.69
2022-07-30T23:45:37.209Z,99152.38
2022-07-30T23:48:04.291Z,99128.03
2022-07-30T23:50:32.808Z,99152.91
2022-07-30T23:53:00.820Z,99160.56
2022-07-30T23:55:28.206Z,99144.56
2022-07-30T23:57:55.320Z,99175.06
